Boaz, KY

6:53 AM CST on February 08, 2016 (GMT -0600)
hopewell rd | | Change Station
CLOSE
Current Station
Personal Weather Station
Location: Boaz, KY
Elevation: 400 ft
Nearby Weather Stations

Elev 400 ft 36.86 °N, 88.61 °W | Updated 3 minutes ago

Overcast
Overcast
35.9 °F
Feels Like 36 °F
N
1.0
Wind Variable Wind from WSW
Gusts 5.0 mph

Today
High -- | Low -- °F
--% Chance of Precip.
Yesterday
High -- | Low -- °F
Precip. -- in
Pressure 29.81 in
Visibility 10.0 miles
Clouds Overcast 9500 ft
Windchill 36 °F
Dew Point 29 °F
Humidity 76%
Rainfall 0.00 in
Snow Depth Not available.
6:50 AM 5:26 PM
Waning Crescent, 0% visible
METAR KPAH 081153Z 28006KT 10SM OVC095 03/M03 A2981 RMK AO2 SLP094 T00281033 10078 20028 53002 $
Pressure 29.81 in
Visibility 10.0 miles
Clouds Overcast 9500 ft
Windchill 36 °F
Dew Point 29 °F
Humidity 76%
Rainfall 0.00 in
Snow Depth Not available.
6:50 AM 5:26 PM
Waning Crescent, 0% visible
METAR KPAH 081153Z 28006KT 10SM OVC095 03/M03 A2981 RMK AO2 SLP094 T00281033 10078 20028 53002 $

10-Day Weather Forecast

Almanac

Astronomy

Feb. 08, 2016 Rise Set
Actual Time
Civil Twilight
Nautical Twilight
Astronomical Twilight
Moon
Length of Visible Light
Length of Day
Tomorrow will be .
, % of the Moon is Illuminated

Today's Extremes

State Highs State Lows

Community

WunderPhotos

Upload Photos

1,891,428 photos uploaded!

WunderBlog® & News

Nearby

Air Quality

  Air Quality AQ Index Pollutant
Not available.

Snow Depth

Station Depth Elevation

Earthquake Activity

City Distance Mag. Time & Date
Minimum magnitude displayed is 2.5.

Coastal Water Temperatures

Place Temperature

Stations

Nearby Weather Stations

Station Location Temp. Windchill Dew Point Humidity Wind Precip. Elev Updated Type
                   

Watches & Warnings

There are currently no watches in effect.